sensor_id;sensor_type;location;lat;lon;timestamp;P1;durP1;ratioP1;P2;durP2;ratioP2
16326;SDS011;34812;49.846;9.610;2023-02-26T00:00:26;6.60;;;5.67;;
16326;SDS011;34812;49.846;9.610;2023-02-26T00:01:28;7.10;;;5.93;;
16326;SDS011;34812;49.846;9.610;2023-02-26T00:02:31;7.43;;;6.10;;
16326;SDS011;34812;49.846;9.610;2023-02-26T00:03:33;8.77;;;6.23;;
16326;SDS011;34812;49.846;9.610;2023-02-26T00:04:34;9.93;;;6.00;;
16326;SDS011;34812;49.846;9.610;2023-02-26T00:05:35;10.97;;;6.77;;
16326;SDS011;34812;49.846;9.610;2023-02-26T00:06:37;9.40;;;6.80;;
16326;SDS011;34812;49.846;9.610;2023-02-26T00:07:52;7.83;;;6.27;;
16326;SDS011;34812;49.846;9.610;2023-02-26T00:08:53;11.83;;;6.90;;
16326;SDS011;34812;49.846;9.610;2023-02-26T00:09:55;10.30;;;7.27;;
16326;SDS011;34812;49.846;9.610;2023-02-26T00:10:57;8.10;;;7.03;;
16326;SDS011;34812;49.846;9.610;2023-02-26T00:12:01;10.03;;;6.53;;
16326;SDS011;34812;49.846;9.610;2023-02-26T00:13:03;8.20;;;5.80;;
16326;SDS011;34812;49.846;9.610;2023-02-26T00:14:04;7.93;;;5.77;;
16326;SDS011;34812;49.846;9.610;2023-02-26T00:15:10;7.47;;;5.53;;
16326;SDS011;34812;49.846;9.610;2023-02-26T00:16:16;7.73;;;6.33;;
16326;SDS011;34812;49.846;9.610;2023-02-26T00:17:31;7.30;;;5.20;;
16326;SDS011;34812;49.846;9.610;2023-02-26T00:18:39;8.43;;;5.40;;
16326;SDS011;34812;49.846;9.610;2023-02-26T00:19:41;7.03;;;5.77;;
16326;SDS011;34812;49.846;9.610;2023-02-26T00:20:43;7.33;;;5.27;;
16326;SDS011;34812;49.846;9.610;2023-02-26T00:21:44;7.17;;;4.50;;
16326;SDS011;34812;49.846;9.610;2023-02-26T00:22:46;6.07;;;4.73;;
16326;SDS011;34812;49.846;9.610;2023-02-26T00:23:49;6.57;;;4.97;;
16326;SDS011;34812;49.846;9.610;2023-02-26T00:24:51;5.03;;;4.50;;
16326;SDS011;34812;49.846;9.610;2023-02-26T00:25:52;4.07;;;3.67;;
16326;SDS011;34812;49.846;9.610;2023-02-26T00:26:54;10.77;;;4.53;;
16326;SDS011;34812;49.846;9.610;2023-02-26T00:27:55;4.40;;;4.00;;
16326;SDS011;34812;49.846;9.610;2023-02-26T00:28:57;4.93;;;3.80;;
16326;SDS011;34812;49.846;9.610;2023-02-26T00:29:58;4.77;;;3.77;;
16326;SDS011;34812;49.846;9.610;2023-02-26T00:31:01;4.80;;;3.90;;
16326;SDS011;34812;49.846;9.610;2023-02-26T00:32:02;3.87;;;3.37;;
16326;SDS011;34812;49.846;9.610;2023-02-26T00:33:05;5.17;;;4.30;;
16326;SDS011;34812;49.846;9.610;2023-02-26T00:34:09;5.10;;;4.20;;
16326;SDS011;34812;49.846;9.610;2023-02-26T00:35:12;4.53;;;3.50;;
16326;SDS011;34812;49.846;9.610;2023-02-26T00:36:18;6.23;;;4.00;;
16326;SDS011;34812;49.846;9.610;2023-02-26T00:37:31;4.30;;;3.70;;
16326;SDS011;34812;49.846;9.610;2023-02-26T00:38:52;4.00;;;3.60;;
16326;SDS011;34812;49.846;9.610;2023-02-26T00:40:02;3.90;;;3.50;;
16326;SDS011;34812;49.846;9.610;2023-02-26T00:41:14;5.53;;;3.77;;
16326;SDS011;34812;49.846;9.610;2023-02-26T00:42:15;4.83;;;3.43;;
16326;SDS011;34812;49.846;9.610;2023-02-26T00:43:18;6.27;;;3.50;;
16326;SDS011;34812;49.846;9.610;2023-02-26T00:44:21;4.50;;;4.10;;
16326;SDS011;34812;49.846;9.610;2023-02-26T00:45:24;4.93;;;3.77;;
16326;SDS011;34812;49.846;9.610;2023-02-26T00:46:27;5.10;;;3.90;;
16326;SDS011;34812;49.846;9.610;2023-02-26T00:47:40;5.70;;;3.83;;
16326;SDS011;34812;49.846;9.610;2023-02-26T00:48:50;3.93;;;3.40;;
16326;SDS011;34812;49.846;9.610;2023-02-26T00:50:00;8.97;;;4.23;;
16326;SDS011;34812;49.846;9.610;2023-02-26T00:51:12;4.57;;;4.17;;
16326;SDS011;34812;49.846;9.610;2023-02-26T00:52:24;5.13;;;3.50;;
16326;SDS011;34812;49.846;9.610;2023-02-26T00:53:31;4.93;;;3.53;;
16326;SDS011;34812;49.846;9.610;2023-02-26T00:54:37;4.40;;;3.87;;
16326;SDS011;34812;49.846;9.610;2023-02-26T00:55:38;5.70;;;3.63;;
16326;SDS011;34812;49.846;9.610;2023-02-26T00:56:40;4.70;;;3.67;;
16326;SDS011;34812;49.846;9.610;2023-02-26T00:57:41;3.73;;;3.27;;
16326;SDS011;34812;49.846;9.610;2023-02-26T00:58:42;5.47;;;3.67;;
16326;SDS011;34812;49.846;9.610;2023-02-26T00:59:43;4.67;;;3.40;;
16326;SDS011;34812;49.846;9.610;2023-02-26T01:00:45;3.80;;;3.43;;
16326;SDS011;34812;49.846;9.610;2023-02-26T01:01:46;3.67;;;3.37;;
16326;SDS011;34812;49.846;9.610;2023-02-26T01:02:48;6.05;;;3.50;;
16326;SDS011;34812;49.846;9.610;2023-02-26T01:03:50;6.75;;;4.07;;
16326;SDS011;34812;49.846;9.610;2023-02-26T01:04:52;5.28;;;4.18;;
16326;SDS011;34812;49.846;9.610;2023-02-26T01:05:53;7.20;;;3.72;;
16326;SDS011;34812;49.846;9.610;2023-02-26T01:06:56;5.67;;;4.00;;
16326;SDS011;34812;49.846;9.610;2023-02-26T01:07:58;4.72;;;3.78;;
16326;SDS011;34812;49.846;9.610;2023-02-26T01:09:07;4.68;;;3.58;;
16326;SDS011;34812;49.846;9.610;2023-02-26T01:10:16;8.57;;;3.83;;
16326;SDS011;34812;49.846;9.610;2023-02-26T01:11:19;7.90;;;3.87;;
16326;SDS011;34812;49.846;9.610;2023-02-26T01:12:20;4.77;;;4.13;;
16326;SDS011;34812;49.846;9.610;2023-02-26T01:13:22;4.35;;;3.95;;
16326;SDS011;34812;49.846;9.610;2023-02-26T01:14:23;4.13;;;3.55;;
16326;SDS011;34812;49.846;9.610;2023-02-26T01:15:26;4.63;;;3.97;;
16326;SDS011;34812;49.846;9.610;2023-02-26T01:16:27;5.53;;;3.75;;
16326;SDS011;34812;49.846;9.610;2023-02-26T01:17:33;3.95;;;3.55;;
16326;SDS011;34812;49.846;9.610;2023-02-26T01:18:41;5.90;;;3.67;;
16326;SDS011;34812;49.846;9.610;2023-02-26T01:19:46;4.82;;;3.65;;
16326;SDS011;34812;49.846;9.610;2023-02-26T01:20:53;6.00;;;4.20;;
16326;SDS011;34812;49.846;9.610;2023-02-26T01:22:00;4.70;;;4.30;;
16326;SDS011;34812;49.846;9.610;2023-02-26T01:23:08;4.45;;;3.53;;
16326;SDS011;34812;49.846;9.610;2023-02-26T01:24:14;4.70;;;4.30;;
16326;SDS011;34812;49.846;9.610;2023-02-26T01:25:20;6.57;;;4.43;;
16326;SDS011;34812;49.846;9.610;2023-02-26T01:26:26;4.15;;;3.55;;
16326;SDS011;34812;49.846;9.610;2023-02-26T01:27:28;3.95;;;3.65;;
16326;SDS011;34812;49.846;9.610;2023-02-26T01:28:30;4.55;;;3.70;;
16326;SDS011;34812;49.846;9.610;2023-02-26T01:29:31;6.18;;;4.72;;
16326;SDS011;34812;49.846;9.610;2023-02-26T01:30:34;5.80;;;3.88;;
16326;SDS011;34812;49.846;9.610;2023-02-26T01:31:37;5.75;;;3.92;;
16326;SDS011;34812;49.846;9.610;2023-02-26T01:32:50;4.25;;;3.95;;
16326;SDS011;34812;49.846;9.610;2023-02-26T01:33:57;4.35;;;3.95;;
16326;SDS011;34812;49.846;9.610;2023-02-26T01:35:04;8.63;;;4.07;;
16326;SDS011;34812;49.846;9.610;2023-02-26T01:36:08;6.10;;;4.28;;
16326;SDS011;34812;49.846;9.610;2023-02-26T01:37:20;9.65;;;4.10;;
16326;SDS011;34812;49.846;9.610;2023-02-26T01:38:26;6.07;;;4.07;;
16326;SDS011;34812;49.846;9.610;2023-02-26T01:39:38;5.57;;;4.10;;
16326;SDS011;34812;49.846;9.610;2023-02-26T01:40:50;6.07;;;4.30;;
16326;SDS011;34812;49.846;9.610;2023-02-26T01:42:14;5.80;;;4.88;;
16326;SDS011;34812;49.846;9.610;2023-02-26T01:43:21;4.80;;;4.38;;
16326;SDS011;34812;49.846;9.610;2023-02-26T01:44:28;4.72;;;4.13;;
16326;SDS011;34812;49.846;9.610;2023-02-26T01:45:37;4.70;;;4.30;;
16326;SDS011;34812;49.846;9.610;2023-02-26T01:46:55;8.00;;;4.75;;
16326;SDS011;34812;49.846;9.610;2023-02-26T01:48:10;6.07;;;4.07;;
16326;SDS011;34812;49.846;9.610;2023-02-26T01:49:17;5.60;;;4.25;;
16326;SDS011;34812;49.846;9.610;2023-02-26T01:50:20;5.95;;;4.47;;
16326;SDS011;34812;49.846;9.610;2023-02-26T01:51:42;5.20;;;4.57;;
16326;SDS011;34812;49.846;9.610;2023-02-26T01:54:16;5.97;;;4.55;;
16326;SDS011;34812;49.846;9.610;2023-02-26T01:55:20;5.43;;;4.57;;
16326;SDS011;34812;49.846;9.610;2023-02-26T01:56:24;8.35;;;4.22;;
16326;SDS011;34812;49.846;9.610;2023-02-26T01:57:25;6.60;;;4.60;;
16326;SDS011;34812;49.846;9.610;2023-02-26T01:58:27;9.50;;;5.07;;
16326;SDS011;34812;49.846;9.610;2023-02-26T01:59:34;6.95;;;4.90;;
16326;SDS011;34812;49.846;9.610;2023-02-26T02:00:37;7.72;;;4.68;;
16326;SDS011;34812;49.846;9.610;2023-02-26T02:01:39;5.43;;;4.80;;
16326;SDS011;34812;49.846;9.610;2023-02-26T02:02:40;5.72;;;4.72;;
16326;SDS011;34812;49.846;9.610;2023-02-26T02:03:42;7.22;;;4.97;;
16326;SDS011;34812;49.846;9.610;2023-02-26T02:04:43;5.13;;;4.30;;
16326;SDS011;34812;49.846;9.610;2023-02-26T02:05:48;5.20;;;4.43;;
16326;SDS011;34812;49.846;9.610;2023-02-26T02:06:51;5.10;;;4.60;;
16326;SDS011;34812;49.846;9.610;2023-02-26T02:07:54;7.43;;;5.25;;
16326;SDS011;34812;49.846;9.610;2023-02-26T02:08:58;6.47;;;4.80;;
16326;SDS011;34812;49.846;9.610;2023-02-26T02:09:59;5.57;;;4.57;;
16326;SDS011;34812;49.846;9.610;2023-02-26T02:11:00;7.97;;;4.53;;
16326;SDS011;34812;49.846;9.610;2023-02-26T02:12:12;6.72;;;4.68;;
16326;SDS011;34812;49.846;9.610;2023-02-26T02:13:24;6.03;;;4.32;;
16326;SDS011;34812;49.846;9.610;2023-02-26T02:14:36;5.65;;;4.85;;
16326;SDS011;34812;49.846;9.610;2023-02-26T02:15:48;4.45;;;4.05;;
16326;SDS011;34812;49.846;9.610;2023-02-26T02:16:58;5.97;;;4.35;;
16326;SDS011;34812;49.846;9.610;2023-02-26T02:18:09;5.55;;;4.15;;
16326;SDS011;34812;49.846;9.610;2023-02-26T02:19:27;4.57;;;4.05;;
16326;SDS011;34812;49.846;9.610;2023-02-26T02:21:17;6.32;;;4.03;;
16326;SDS011;34812;49.846;9.610;2023-02-26T02:22:34;5.20;;;3.78;;
16326;SDS011;34812;49.846;9.610;2023-02-26T02:23:50;5.03;;;3.47;;
16326;SDS011;34812;49.846;9.610;2023-02-26T02:25:00;3.97;;;3.17;;
16326;SDS011;34812;49.846;9.610;2023-02-26T02:26:26;6.65;;;3.78;;
16326;SDS011;34812;49.846;9.610;2023-02-26T02:27:43;3.97;;;3.58;;
16326;SDS011;34812;49.846;9.610;2023-02-26T02:28:57;5.25;;;3.38;;
16326;SDS011;34812;49.846;9.610;2023-02-26T02:30:21;5.38;;;3.55;;
16326;SDS011;34812;49.846;9.610;2023-02-26T02:31:30;6.35;;;3.58;;
16326;SDS011;34812;49.846;9.610;2023-02-26T02:32:37;3.88;;;3.55;;
16326;SDS011;34812;49.846;9.610;2023-02-26T02:33:44;7.25;;;3.88;;
16326;SDS011;34812;49.846;9.610;2023-02-26T02:34:50;5.22;;;3.58;;
16326;SDS011;34812;49.846;9.610;2023-02-26T02:35:57;5.53;;;3.72;;
16326;SDS011;34812;49.846;9.610;2023-02-26T02:37:04;4.20;;;3.75;;
16326;SDS011;34812;49.846;9.610;2023-02-26T02:38:13;5.22;;;3.88;;
16326;SDS011;34812;49.846;9.610;2023-02-26T02:39:19;7.65;;;4.00;;
16326;SDS011;34812;49.846;9.610;2023-02-26T02:40:24;9.27;;;4.13;;
16326;SDS011;34812;49.846;9.610;2023-02-26T02:41:33;4.93;;;3.83;;
16326;SDS011;34812;49.846;9.610;2023-02-26T02:42:38;6.57;;;3.72;;
16326;SDS011;34812;49.846;9.610;2023-02-26T02:43:44;4.00;;;3.70;;
16326;SDS011;34812;49.846;9.610;2023-02-26T02:44:51;4.75;;;3.55;;
16326;SDS011;34812;49.846;9.610;2023-02-26T02:45:58;4.93;;;4.10;;
16326;SDS011;34812;49.846;9.610;2023-02-26T02:47:04;8.65;;;3.85;;
16326;SDS011;34812;49.846;9.610;2023-02-26T02:48:09;8.15;;;3.97;;
16326;SDS011;34812;49.846;9.610;2023-02-26T02:49:17;4.57;;;3.72;;
16326;SDS011;34812;49.846;9.610;2023-02-26T02:50:24;4.45;;;3.90;;
16326;SDS011;34812;49.846;9.610;2023-02-26T02:51:31;4.28;;;3.88;;
16326;SDS011;34812;49.846;9.610;2023-02-26T02:52:37;5.30;;;3.92;;
16326;SDS011;34812;49.846;9.610;2023-02-26T02:53:46;6.93;;;4.32;;
16326;SDS011;34812;49.846;9.610;2023-02-26T02:54:53;5.68;;;4.03;;
16326;SDS011;34812;49.846;9.610;2023-02-26T02:55:58;5.90;;;4.15;;
16326;SDS011;34812;49.846;9.610;2023-02-26T02:57:08;5.75;;;4.30;;
16326;SDS011;34812;49.846;9.610;2023-02-26T02:58:13;6.38;;;4.22;;
16326;SDS011;34812;49.846;9.610;2023-02-26T02:59:20;6.47;;;3.72;;
16326;SDS011;34812;49.846;9.610;2023-02-26T03:00:33;4.68;;;4.15;;
16326;SDS011;34812;49.846;9.610;2023-02-26T03:01:39;4.78;;;4.05;;
16326;SDS011;34812;49.846;9.610;2023-02-26T03:02:44;5.95;;;4.03;;
16326;SDS011;34812;49.846;9.610;2023-02-26T03:03:51;5.35;;;3.78;;
16326;SDS011;34812;49.846;9.610;2023-02-26T03:04:56;4.40;;;3.70;;
16326;SDS011;34812;49.846;9.610;2023-02-26T03:05:58;6.95;;;4.32;;
16326;SDS011;34812;49.846;9.610;2023-02-26T03:06:59;6.20;;;4.53;;
16326;SDS011;34812;49.846;9.610;2023-02-26T03:08:02;6.22;;;4.15;;
16326;SDS011;34812;49.846;9.610;2023-02-26T03:09:08;4.55;;;4.13;;
16326;SDS011;34812;49.846;9.610;2023-02-26T03:10:14;4.72;;;3.70;;
16326;SDS011;34812;49.846;9.610;2023-02-26T03:11:17;8.00;;;3.88;;
16326;SDS011;34812;49.846;9.610;2023-02-26T03:12:20;4.70;;;3.92;;
16326;SDS011;34812;49.846;9.610;2023-02-26T03:13:23;4.40;;;4.10;;
16326;SDS011;34812;49.846;9.610;2023-02-26T03:14:33;5.40;;;4.00;;
16326;SDS011;34812;49.846;9.610;2023-02-26T03:15:36;4.90;;;3.50;;
16326;SDS011;34812;49.846;9.610;2023-02-26T03:17:03;6.50;;;3.87;;
16326;SDS011;34812;49.846;9.610;2023-02-26T03:18:15;3.90;;;3.40;;
16326;SDS011;34812;49.846;9.610;2023-02-26T03:19:26;3.60;;;3.30;;
16326;SDS011;34812;49.846;9.610;2023-02-26T03:20:34;5.80;;;2.95;;
16326;SDS011;34812;49.846;9.610;2023-02-26T03:21:44;5.20;;;3.35;;
16326;SDS011;34812;49.846;9.610;2023-02-26T03:23:00;6.63;;;3.33;;
16326;SDS011;34812;49.846;9.610;2023-02-26T03:24:09;5.28;;;3.15;;
16326;SDS011;34812;49.846;9.610;2023-02-26T03:25:16;4.32;;;3.60;;
16326;SDS011;34812;49.846;9.610;2023-02-26T03:26:23;6.15;;;3.70;;
16326;SDS011;34812;49.846;9.610;2023-02-26T03:27:34;6.50;;;3.67;;
16326;SDS011;34812;49.846;9.610;2023-02-26T03:28:45;3.63;;;3.10;;
16326;SDS011;34812;49.846;9.610;2023-02-26T03:29:49;3.75;;;3.15;;
16326;SDS011;34812;49.846;9.610;2023-02-26T03:30:56;4.70;;;3.03;;
16326;SDS011;34812;49.846;9.610;2023-02-26T03:32:03;3.50;;;2.95;;
16326;SDS011;34812;49.846;9.610;2023-02-26T03:33:09;5.38;;;3.03;;
16326;SDS011;34812;49.846;9.610;2023-02-26T03:34:16;4.38;;;2.88;;
16326;SDS011;34812;49.846;9.610;2023-02-26T03:35:26;4.47;;;2.95;;
16326;SDS011;34812;49.846;9.610;2023-02-26T03:36:31;5.53;;;3.05;;
16326;SDS011;34812;49.846;9.610;2023-02-26T03:37:52;4.07;;;3.27;;
16326;SDS011;34812;49.846;9.610;2023-02-26T03:38:57;4.57;;;3.17;;
16326;SDS011;34812;49.846;9.610;2023-02-26T03:40:05;7.28;;;3.67;;
16326;SDS011;34812;49.846;9.610;2023-02-26T03:41:09;6.75;;;3.30;;
16326;SDS011;34812;49.846;9.610;2023-02-26T03:42:16;7.70;;;3.85;;
16326;SDS011;34812;49.846;9.610;2023-02-26T03:43:29;4.27;;;3.37;;
16326;SDS011;34812;49.846;9.610;2023-02-26T03:44:37;4.30;;;3.40;;
16326;SDS011;34812;49.846;9.610;2023-02-26T03:45:41;7.13;;;3.63;;
16326;SDS011;34812;49.846;9.610;2023-02-26T03:46:48;5.15;;;3.55;;
16326;SDS011;34812;49.846;9.610;2023-02-26T03:47:53;4.63;;;3.30;;
16326;SDS011;34812;49.846;9.610;2023-02-26T03:48:58;7.15;;;3.50;;
16326;SDS011;34812;49.846;9.610;2023-02-26T03:50:05;3.33;;;3.05;;
16326;SDS011;34812;49.846;9.610;2023-02-26T03:51:21;4.50;;;3.28;;
16326;SDS011;34812;49.846;9.610;2023-02-26T03:52:52;5.55;;;3.35;;
16326;SDS011;34812;49.846;9.610;2023-02-26T03:54:13;3.78;;;3.03;;
16326;SDS011;34812;49.846;9.610;2023-02-26T03:55:24;5.38;;;3.13;;
16326;SDS011;34812;49.846;9.610;2023-02-26T03:56:39;3.38;;;3.08;;
16326;SDS011;34812;49.846;9.610;2023-02-26T03:58:11;6.43;;;3.28;;
16326;SDS011;34812;49.846;9.610;2023-02-26T03:59:32;5.53;;;3.50;;
16326;SDS011;34812;49.846;9.610;2023-02-26T04:00:49;6.45;;;3.28;;
16326;SDS011;34812;49.846;9.610;2023-02-26T04:01:58;5.15;;;3.33;;
16326;SDS011;34812;49.846;9.610;2023-02-26T04:03:02;4.60;;;3.20;;
16326;SDS011;34812;49.846;9.610;2023-02-26T04:04:11;6.15;;;3.30;;
16326;SDS011;34812;49.846;9.610;2023-02-26T04:05:17;5.43;;;3.00;;
16326;SDS011;34812;49.846;9.610;2023-02-26T04:06:21;5.80;;;3.25;;
16326;SDS011;34812;49.846;9.610;2023-02-26T04:07:22;4.80;;;3.08;;
16326;SDS011;34812;49.846;9.610;2023-02-26T04:08:25;5.40;;;3.25;;
16326;SDS011;34812;49.846;9.610;2023-02-26T04:09:26;6.68;;;3.25;;
16326;SDS011;34812;49.846;9.610;2023-02-26T04:10:32;7.57;;;2.92;;
16326;SDS011;34812;49.846;9.610;2023-02-26T04:11:37;5.00;;;2.90;;
16326;SDS011;34812;49.846;9.610;2023-02-26T04:12:39;4.57;;;2.63;;
16326;SDS011;34812;49.846;9.610;2023-02-26T04:13:41;4.18;;;3.15;;
16326;SDS011;34812;49.846;9.610;2023-02-26T04:14:43;4.00;;;3.03;;
16326;SDS011;34812;49.846;9.610;2023-02-26T04:15:45;4.15;;;3.03;;
16326;SDS011;34812;49.846;9.610;2023-02-26T04:16:47;6.68;;;3.22;;
16326;SDS011;34812;49.846;9.610;2023-02-26T04:17:48;5.33;;;3.20;;
16326;SDS011;34812;49.846;9.610;2023-02-26T04:18:49;5.80;;;3.30;;
16326;SDS011;34812;49.846;9.610;2023-02-26T04:19:52;4.80;;;3.00;;
16326;SDS011;34812;49.846;9.610;2023-02-26T04:20:53;4.63;;;3.40;;
16326;SDS011;34812;49.846;9.610;2023-02-26T04:21:54;5.10;;;3.23;;
16326;SDS011;34812;49.846;9.610;2023-02-26T04:22:56;4.88;;;3.33;;
16326;SDS011;34812;49.846;9.610;2023-02-26T04:23:57;6.37;;;2.80;;
16326;SDS011;34812;49.846;9.610;2023-02-26T04:24:59;3.92;;;3.60;;
16326;SDS011;34812;49.846;9.610;2023-02-26T04:25:59;6.97;;;3.17;;
16326;SDS011;34812;49.846;9.610;2023-02-26T04:27:02;8.07;;;3.13;;
16326;SDS011;34812;49.846;9.610;2023-02-26T04:28:04;4.53;;;3.17;;
16326;SDS011;34812;49.846;9.610;2023-02-26T04:29:06;3.78;;;3.30;;
16326;SDS011;34812;49.846;9.610;2023-02-26T04:30:08;3.50;;;3.08;;
16326;SDS011;34812;49.846;9.610;2023-02-26T04:31:11;3.67;;;3.00;;
16326;SDS011;34812;49.846;9.610;2023-02-26T04:32:13;6.03;;;2.95;;
16326;SDS011;34812;49.846;9.610;2023-02-26T04:33:15;6.32;;;3.28;;
16326;SDS011;34812;49.846;9.610;2023-02-26T04:34:16;3.33;;;3.00;;
16326;SDS011;34812;49.846;9.610;2023-02-26T04:35:19;3.45;;;3.15;;
16326;SDS011;34812;49.846;9.610;2023-02-26T04:36:20;4.70;;;3.65;;
16326;SDS011;34812;49.846;9.610;2023-02-26T04:37:22;4.70;;;3.00;;
16326;SDS011;34812;49.846;9.610;2023-02-26T04:38:23;4.23;;;2.73;;
16326;SDS011;34812;49.846;9.610;2023-02-26T04:39:25;6.05;;;3.10;;
16326;SDS011;34812;49.846;9.610;2023-02-26T04:40:26;5.77;;;3.07;;
16326;SDS011;34812;49.846;9.610;2023-02-26T04:41:28;4.85;;;3.33;;
16326;SDS011;34812;49.846;9.610;2023-02-26T04:42:28;7.33;;;3.07;;
16326;SDS011;34812;49.846;9.610;2023-02-26T04:43:30;4.82;;;2.47;;
16326;SDS011;34812;49.846;9.610;2023-02-26T04:44:46;5.90;;;3.13;;
16326;SDS011;34812;49.846;9.610;2023-02-26T04:45:48;3.83;;;2.80;;
16326;SDS011;34812;49.846;9.610;2023-02-26T04:46:49;3.28;;;2.97;;
16326;SDS011;34812;49.846;9.610;2023-02-26T04:47:51;5.38;;;3.40;;
16326;SDS011;34812;49.846;9.610;2023-02-26T04:48:52;6.00;;;2.50;;
16326;SDS011;34812;49.846;9.610;2023-02-26T04:49:54;5.95;;;3.33;;
16326;SDS011;34812;49.846;9.610;2023-02-26T04:50:56;6.07;;;3.43;;
16326;SDS011;34812;49.846;9.610;2023-02-26T04:51:58;3.67;;;3.00;;
16326;SDS011;34812;49.846;9.610;2023-02-26T04:52:59;4.10;;;3.22;;
16326;SDS011;34812;49.846;9.610;2023-02-26T04:54:01;3.10;;;2.55;;
16326;SDS011;34812;49.846;9.610;2023-02-26T04:55:02;3.20;;;2.90;;
16326;SDS011;34812;49.846;9.610;2023-02-26T04:56:06;4.72;;;2.97;;
16326;SDS011;34812;49.846;9.610;2023-02-26T04:57:07;4.70;;;2.83;;
16326;SDS011;34812;49.846;9.610;2023-02-26T04:58:10;4.72;;;3.40;;
16326;SDS011;34812;49.846;9.610;2023-02-26T04:59:11;3.67;;;3.23;;
16326;SDS011;34812;49.846;9.610;2023-02-26T05:00:14;6.30;;;3.30;;
16326;SDS011;34812;49.846;9.610;2023-02-26T05:01:15;3.83;;;2.50;;
16326;SDS011;34812;49.846;9.610;2023-02-26T05:02:17;8.27;;;3.20;;
16326;SDS011;34812;49.846;9.610;2023-02-26T05:03:21;3.70;;;3.25;;
16326;SDS011;34812;49.846;9.610;2023-02-26T05:04:23;6.35;;;2.90;;
16326;SDS011;34812;49.846;9.610;2023-02-26T05:05:27;4.35;;;3.20;;
16326;SDS011;34812;49.846;9.610;2023-02-26T05:06:30;7.18;;;3.25;;
16326;SDS011;34812;49.846;9.610;2023-02-26T05:07:31;7.60;;;3.70;;
16326;SDS011;34812;49.846;9.610;2023-02-26T05:08:33;4.28;;;3.13;;
16326;SDS011;34812;49.846;9.610;2023-02-26T05:09:34;4.57;;;3.00;;
16326;SDS011;34812;49.846;9.610;2023-02-26T05:10:36;5.50;;;3.30;;
16326;SDS011;34812;49.846;9.610;2023-02-26T05:11:37;3.78;;;2.92;;
16326;SDS011;34812;49.846;9.610;2023-02-26T05:12:40;4.85;;;3.03;;
16326;SDS011;34812;49.846;9.610;2023-02-26T05:13:41;5.50;;;3.27;;
16326;SDS011;34812;49.846;9.610;2023-02-26T05:14:43;5.13;;;2.85;;
16326;SDS011;34812;49.846;9.610;2023-02-26T05:15:44;5.20;;;2.97;;
16326;SDS011;34812;49.846;9.610;2023-02-26T05:16:46;5.28;;;3.00;;
16326;SDS011;34812;49.846;9.610;2023-02-26T05:17:47;6.50;;;3.30;;
16326;SDS011;34812;49.846;9.610;2023-02-26T05:18:49;4.65;;;3.08;;
16326;SDS011;34812;49.846;9.610;2023-02-26T05:19:51;8.07;;;3.88;;
16326;SDS011;34812;49.846;9.610;2023-02-26T05:20:52;3.45;;;2.92;;
16326;SDS011;34812;49.846;9.610;2023-02-26T05:21:55;6.15;;;3.42;;
16326;SDS011;34812;49.846;9.610;2023-02-26T05:22:57;6.60;;;3.00;;
16326;SDS011;34812;49.846;9.610;2023-02-26T05:23:58;3.77;;;3.07;;
16326;SDS011;34812;49.846;9.610;2023-02-26T05:25:00;7.43;;;3.33;;
16326;SDS011;34812;49.846;9.610;2023-02-26T05:26:00;4.17;;;3.50;;
16326;SDS011;34812;49.846;9.610;2023-02-26T05:27:03;5.45;;;3.42;;
16326;SDS011;34812;49.846;9.610;2023-02-26T05:28:05;5.82;;;3.80;;
16326;SDS011;34812;49.846;9.610;2023-02-26T05:29:07;7.65;;;4.50;;
16326;SDS011;34812;49.846;9.610;2023-02-26T05:30:09;5.47;;;3.97;;
16326;SDS011;34812;49.846;9.610;2023-02-26T05:31:13;4.10;;;3.30;;
16326;SDS011;34812;49.846;9.610;2023-02-26T05:32:14;6.70;;;3.40;;
16326;SDS011;34812;49.846;9.610;2023-02-26T05:33:17;6.20;;;3.45;;
16326;SDS011;34812;49.846;9.610;2023-02-26T05:34:18;6.13;;;3.15;;
16326;SDS011;34812;49.846;9.610;2023-02-26T05:35:19;4.47;;;3.85;;
16326;SDS011;34812;49.846;9.610;2023-02-26T05:36:20;5.63;;;3.17;;
16326;SDS011;34812;49.846;9.610;2023-02-26T05:37:23;4.50;;;3.23;;
16326;SDS011;34812;49.846;9.610;2023-02-26T05:38:24;5.03;;;2.70;;
16326;SDS011;34812;49.846;9.610;2023-02-26T05:39:26;4.47;;;3.27;;
16326;SDS011;34812;49.846;9.610;2023-02-26T05:40:27;4.37;;;3.00;;
16326;SDS011;34812;49.846;9.610;2023-02-26T05:41:28;4.47;;;2.80;;
16326;SDS011;34812;49.846;9.610;2023-02-26T05:42:29;5.53;;;3.00;;
16326;SDS011;34812;49.846;9.610;2023-02-26T05:43:31;5.50;;;2.60;;
16326;SDS011;34812;49.846;9.610;2023-02-26T05:44:32;8.80;;;3.13;;
16326;SDS011;34812;49.846;9.610;2023-02-26T05:45:35;3.85;;;3.15;;
16326;SDS011;34812;49.846;9.610;2023-02-26T05:46:35;3.50;;;2.73;;
16326;SDS011;34812;49.846;9.610;2023-02-26T05:47:37;4.63;;;3.03;;
16326;SDS011;34812;49.846;9.610;2023-02-26T05:48:38;7.93;;;2.97;;
16326;SDS011;34812;49.846;9.610;2023-02-26T05:49:40;3.63;;;2.80;;
16326;SDS011;34812;49.846;9.610;2023-02-26T05:50:41;4.30;;;3.00;;
16326;SDS011;34812;49.846;9.610;2023-02-26T05:51:42;3.70;;;3.15;;
16326;SDS011;34812;49.846;9.610;2023-02-26T05:52:44;4.17;;;2.93;;
16326;SDS011;34812;49.846;9.610;2023-02-26T05:53:46;4.93;;;2.83;;
16326;SDS011;34812;49.846;9.610;2023-02-26T05:54:47;7.13;;;3.53;;
16326;SDS011;34812;49.846;9.610;2023-02-26T05:55:49;4.18;;;3.10;;
16326;SDS011;34812;49.846;9.610;2023-02-26T05:56:51;3.50;;;3.20;;
16326;SDS011;34812;49.846;9.610;2023-02-26T05:57:53;4.10;;;3.00;;
16326;SDS011;34812;49.846;9.610;2023-02-26T05:58:54;5.27;;;3.40;;
16326;SDS011;34812;49.846;9.610;2023-02-26T05:59:56;3.30;;;2.93;;
16326;SDS011;34812;49.846;9.610;2023-02-26T06:00:57;4.40;;;2.97;;
16326;SDS011;34812;49.846;9.610;2023-02-26T06:01:58;4.27;;;3.30;;
16326;SDS011;34812;49.846;9.610;2023-02-26T06:02:59;4.33;;;2.87;;
16326;SDS011;34812;49.846;9.610;2023-02-26T06:04:01;4.57;;;3.00;;
16326;SDS011;34812;49.846;9.610;2023-02-26T06:05:02;3.03;;;2.83;;
16326;SDS011;34812;49.846;9.610;2023-02-26T06:06:04;3.67;;;2.80;;
16326;SDS011;34812;49.846;9.610;2023-02-26T06:07:05;3.15;;;2.90;;
16326;SDS011;34812;49.846;9.610;2023-02-26T06:08:08;4.60;;;2.97;;
16326;SDS011;34812;49.846;9.610;2023-02-26T06:09:11;6.22;;;3.22;;
16326;SDS011;34812;49.846;9.610;2023-02-26T06:10:13;4.68;;;3.00;;
16326;SDS011;34812;49.846;9.610;2023-02-26T06:11:14;3.87;;;3.20;;
16326;SDS011;34812;49.846;9.610;2023-02-26T06:12:15;3.80;;;3.45;;
16326;SDS011;34812;49.846;9.610;2023-02-26T06:13:17;4.07;;;3.23;;
16326;SDS011;34812;49.846;9.610;2023-02-26T06:14:19;6.18;;;3.35;;
16326;SDS011;34812;49.846;9.610;2023-02-26T06:15:20;7.07;;;3.37;;
16326;SDS011;34812;49.846;9.610;2023-02-26T06:16:22;5.20;;;3.35;;
16326;SDS011;34812;49.846;9.610;2023-02-26T06:17:23;3.90;;;3.23;;
16326;SDS011;34812;49.846;9.610;2023-02-26T06:18:25;5.80;;;3.70;;
16326;SDS011;34812;49.846;9.610;2023-02-26T06:19:25;5.30;;;3.13;;
16326;SDS011;34812;49.846;9.610;2023-02-26T06:20:27;4.50;;;3.55;;
16326;SDS011;34812;49.846;9.610;2023-02-26T06:21:28;3.03;;;2.70;;
16326;SDS011;34812;49.846;9.610;2023-02-26T06:22:30;5.22;;;2.75;;
16326;SDS011;34812;49.846;9.610;2023-02-26T06:23:32;6.30;;;3.40;;
16326;SDS011;34812;49.846;9.610;2023-02-26T06:24:35;4.03;;;2.70;;
16326;SDS011;34812;49.846;9.610;2023-02-26T06:25:36;2.97;;;2.70;;
16326;SDS011;34812;49.846;9.610;2023-02-26T06:26:37;5.33;;;2.53;;
16326;SDS011;34812;49.846;9.610;2023-02-26T06:27:38;4.13;;;2.70;;
16326;SDS011;34812;49.846;9.610;2023-02-26T06:28:40;5.80;;;2.70;;
16326;SDS011;34812;49.846;9.610;2023-02-26T06:29:41;3.50;;;3.20;;
16326;SDS011;34812;49.846;9.610;2023-02-26T06:30:43;5.55;;;3.15;;
16326;SDS011;34812;49.846;9.610;2023-02-26T06:31:44;5.45;;;3.00;;
16326;SDS011;34812;49.846;9.610;2023-02-26T06:32:46;5.93;;;3.03;;
16326;SDS011;34812;49.846;9.610;2023-02-26T06:33:47;3.63;;;3.23;;